createdAt,value
2018-04-18T00:00:10.582Z,0.00
2018-04-18T00:01:16.097Z,0.00
2018-04-18T00:02:21.598Z,0.00
2018-04-18T00:03:27.113Z,0.00
2018-04-18T00:04:32.634Z,0.00
2018-04-18T00:05:38.141Z,0.00
2018-04-18T00:06:43.668Z,0.00
2018-04-18T00:07:49.169Z,0.00
2018-04-18T00:08:54.683Z,0.00
2018-04-18T00:10:00.197Z,0.00
2018-04-18T00:11:05.711Z,0.00
2018-04-18T00:12:11.244Z,0.00
2018-04-18T00:13:16.740Z,0.00
2018-04-18T00:14:22.245Z,0.00
2018-04-18T00:15:27.761Z,0.00
2018-04-18T00:16:33.278Z,0.00
2018-04-18T00:17:38.789Z,0.00
2018-04-18T00:18:44.298Z,0.00
2018-04-18T00:19:49.818Z,0.00
2018-04-18T00:20:55.327Z,0.00
2018-04-18T00:22:00.840Z,0.00
2018-04-18T00:23:06.357Z,0.00
2018-04-18T00:24:11.872Z,0.00
2018-04-18T00:25:17.390Z,0.00
2018-04-18T00:26:22.903Z,0.00
2018-04-18T00:27:28.409Z,0.00
2018-04-18T00:28:33.923Z,0.00
2018-04-18T00:29:39.433Z,0.00
2018-04-18T00:30:44.949Z,0.00
2018-04-18T00:31:50.463Z,0.00
2018-04-18T00:32:55.978Z,0.00
2018-04-18T00:34:01.488Z,0.00
2018-04-18T00:35:06.998Z,0.00
2018-04-18T00:36:12.522Z,0.00
2018-04-18T00:37:18.071Z,0.00
2018-04-18T00:38:23.551Z,0.00
2018-04-18T00:39:29.052Z,0.00
2018-04-18T00:40:34.579Z,0.00
2018-04-18T00:41:40.090Z,0.00
2018-04-18T00:42:45.598Z,0.00
2018-04-18T00:43:51.110Z,0.00
2018-04-18T00:44:56.623Z,0.00
2018-04-18T00:46:02.142Z,0.00
2018-04-18T00:47:07.647Z,0.00
2018-04-18T00:48:13.158Z,0.00
2018-04-18T00:49:18.670Z,0.00
2018-04-18T00:50:24.184Z,0.00
2018-04-18T00:51:29.711Z,0.00
2018-04-18T00:52:35.221Z,0.00
2018-04-18T00:53:40.729Z,0.00
2018-04-18T00:54:46.320Z,0.00
2018-04-18T00:55:51.752Z,0.00
2018-04-18T00:56:57.264Z,0.00
2018-04-18T00:58:02.828Z,0.00
2018-04-18T00:59:08.290Z,0.00
2018-04-18T01:00:13.803Z,0.00
2018-04-18T01:01:19.315Z,0.00
2018-04-18T01:02:24.858Z,0.00
2018-04-18T01:03:30.340Z,0.00
2018-04-18T01:04:35.862Z,0.00
2018-04-18T01:05:41.369Z,0.00
2018-04-18T01:06:46.892Z,0.00
2018-04-18T01:07:52.402Z,0.00
2018-04-18T01:08:57.903Z,0.00
2018-04-18T01:10:03.427Z,0.00
2018-04-18T01:11:08.935Z,0.00
2018-04-18T01:12:14.447Z,0.00
2018-04-18T01:13:19.965Z,0.00
2018-04-18T01:14:25.486Z,0.00
2018-04-18T01:15:30.983Z,0.00
2018-04-18T01:16:36.499Z,0.00
2018-04-18T01:17:42.009Z,0.00
2018-04-18T01:18:47.523Z,0.00
2018-04-18T01:19:53.037Z,0.00
2018-04-18T01:20:58.551Z,0.00
2018-04-18T01:22:04.061Z,0.00
2018-04-18T01:23:09.584Z,0.00
2018-04-18T01:24:15.090Z,0.00
2018-04-18T01:25:20.602Z,0.00
2018-04-18T01:26:26.114Z,0.00
2018-04-18T01:27:31.627Z,0.00
2018-04-18T01:28:37.139Z,0.00
2018-04-18T01:29:42.652Z,0.00
2018-04-18T01:30:48.171Z,0.00
2018-04-18T01:31:53.684Z,0.00
2018-04-18T01:32:59.198Z,0.00
2018-04-18T01:34:04.703Z,0.00
2018-04-18T01:35:10.213Z,0.00
2018-04-18T01:36:15.728Z,0.00
2018-04-18T01:37:21.241Z,0.00
2018-04-18T01:38:26.750Z,0.00
2018-04-18T01:39:32.268Z,0.00
2018-04-18T01:40:37.784Z,0.00
2018-04-18T01:41:43.290Z,0.00
2018-04-18T01:42:48.806Z,0.00
2018-04-18T01:43:54.319Z,0.00
2018-04-18T01:44:59.827Z,0.00
2018-04-18T01:46:05.340Z,0.00
2018-04-18T01:47:10.857Z,0.00
2018-04-18T01:48:16.371Z,0.00
2018-04-18T01:49:21.883Z,0.00
2018-04-18T01:50:27.403Z,0.00
2018-04-18T01:51:32.904Z,0.00
2018-04-18T01:52:38.425Z,0.00
2018-04-18T01:53:43.938Z,0.00
2018-04-18T01:54:49.451Z,0.00
2018-04-18T01:55:54.955Z,0.00
2018-04-18T01:57:00.466Z,0.00
2018-04-18T01:58:05.988Z,0.00
2018-04-18T01:59:11.494Z,0.00
2018-04-18T02:00:17.007Z,0.00
2018-04-18T02:01:22.522Z,0.00
2018-04-18T02:02:28.041Z,0.00
2018-04-18T02:03:33.541Z,0.00
2018-04-18T02:04:39.058Z,0.00
2018-04-18T02:05:44.581Z,0.00
2018-04-18T02:06:50.081Z,0.00
2018-04-18T02:07:55.593Z,0.00
2018-04-18T02:09:01.121Z,0.00
2018-04-18T02:10:06.630Z,0.00
2018-04-18T02:11:12.130Z,0.00
2018-04-18T02:12:17.646Z,0.00
2018-04-18T02:13:23.162Z,0.00
2018-04-18T02:14:28.670Z,0.00
2018-04-18T02:15:34.179Z,0.00
2018-04-18T02:16:39.697Z,0.00
2018-04-18T02:17:45.210Z,0.00
2018-04-18T02:18:50.720Z,0.00
2018-04-18T02:19:56.230Z,0.00
2018-04-18T02:21:01.745Z,0.00
2018-04-18T02:22:07.257Z,0.00
2018-04-18T02:23:12.768Z,0.00
2018-04-18T02:24:18.283Z,0.00
2018-04-18T02:25:23.795Z,0.00
2018-04-18T02:26:29.317Z,0.00
2018-04-18T02:27:34.821Z,0.00
2018-04-18T02:28:40.330Z,0.00
2018-04-18T02:29:45.844Z,0.00
2018-04-18T02:30:51.355Z,0.00
2018-04-18T02:31:56.867Z,0.00
2018-04-18T02:33:02.383Z,0.00
2018-04-18T02:34:07.900Z,0.00
2018-04-18T02:35:13.404Z,0.00
2018-04-18T02:36:18.941Z,0.00
2018-04-18T02:37:24.429Z,0.00
2018-04-18T02:38:29.958Z,0.00
2018-04-18T02:39:35.460Z,0.00
2018-04-18T02:40:40.970Z,0.00
2018-04-18T02:41:46.478Z,0.00
2018-04-18T02:42:51.999Z,0.00
2018-04-18T02:43:57.502Z,0.00
2018-04-18T02:45:03.015Z,0.00
2018-04-18T02:46:08.532Z,0.00
2018-04-18T02:47:14.046Z,0.00
2018-04-18T02:48:19.556Z,0.00
2018-04-18T02:49:25.067Z,20.00
2018-04-18T02:50:30.584Z,20.00
2018-04-18T02:51:36.101Z,16.00
2018-04-18T02:52:41.603Z,20.00
2018-04-18T02:53:47.120Z,20.00
2018-04-18T02:54:52.625Z,20.00
2018-04-18T02:55:58.140Z,20.00
2018-04-18T02:57:03.652Z,20.00
2018-04-18T02:58:09.168Z,16.00
2018-04-18T02:59:14.677Z,16.00
2018-04-18T03:00:20.197Z,16.00
2018-04-18T03:01:25.707Z,16.00
2018-04-18T03:02:31.223Z,16.00
2018-04-18T03:03:36.732Z,16.00
2018-04-18T03:04:42.244Z,16.00
2018-04-18T03:05:47.754Z,16.00
2018-04-18T03:06:53.267Z,16.00
2018-04-18T03:07:58.774Z,16.00
2018-04-18T03:09:04.288Z,16.00
2018-04-18T03:10:09.798Z,16.00
2018-04-18T03:11:15.311Z,16.00
2018-04-18T03:12:20.825Z,16.00
2018-04-18T03:13:26.337Z,16.00
2018-04-18T03:14:31.850Z,16.00
2018-04-18T03:15:37.366Z,16.00
2018-04-18T03:16:42.880Z,16.00
2018-04-18T03:17:48.386Z,16.00
2018-04-18T03:18:53.897Z,16.00
2018-04-18T03:19:59.415Z,16.00
2018-04-18T03:21:04.923Z,16.00
2018-04-18T03:22:10.434Z,16.00
2018-04-18T03:23:15.949Z,16.00
2018-04-18T03:24:21.457Z,16.00
2018-04-18T03:25:26.978Z,16.00
2018-04-18T03:26:32.497Z,16.00
2018-04-18T03:27:37.998Z,16.00
2018-04-18T03:28:43.508Z,16.00
2018-04-18T03:29:49.026Z,12.00
2018-04-18T03:30:54.539Z,16.00
2018-04-18T03:32:00.051Z,16.00
2018-04-18T03:33:05.560Z,12.00
2018-04-18T03:34:11.072Z,16.00
2018-04-18T03:35:16.592Z,16.00
2018-04-18T03:36:22.100Z,16.00
2018-04-18T03:37:27.606Z,16.00
2018-04-18T03:38:33.126Z,16.00
2018-04-18T03:39:38.638Z,16.00
2018-04-18T03:40:44.172Z,16.00
2018-04-18T03:41:49.660Z,16.00
2018-04-18T03:42:55.168Z,16.00
2018-04-18T03:44:00.681Z,16.00
2018-04-18T03:45:06.195Z,16.00
2018-04-18T03:46:11.711Z,16.00
2018-04-18T03:47:17.218Z,16.00
2018-04-18T03:48:22.737Z,16.00
2018-04-18T03:49:28.246Z,16.00
2018-04-18T03:50:33.759Z,16.00
2018-04-18T03:51:39.269Z,16.00
2018-04-18T03:52:44.787Z,16.00
2018-04-18T03:53:50.297Z,16.00
2018-04-18T03:54:55.807Z,0.00
2018-04-18T03:56:01.317Z,0.00
2018-04-18T03:57:06.830Z,0.00
2018-04-18T03:58:12.343Z,0.00
2018-04-18T03:59:17.886Z,0.00
2018-04-18T04:00:23.368Z,0.00
2018-04-18T04:01:28.882Z,0.00
2018-04-18T04:02:34.440Z,0.00
2018-04-18T04:03:39.907Z,0.00
2018-04-18T04:04:45.417Z,0.00
2018-04-18T04:05:50.928Z,0.00
2018-04-18T04:06:56.446Z,0.00
2018-04-18T04:08:01.958Z,0.00
2018-04-18T04:09:07.475Z,4.00
2018-04-18T04:10:12.976Z,0.00
2018-04-18T04:11:18.495Z,0.00
2018-04-18T04:12:24.008Z,4.00
2018-04-18T04:13:29.513Z,4.00
2018-04-18T04:14:35.024Z,4.00
2018-04-18T04:15:40.535Z,4.00
2018-04-18T04:16:46.048Z,8.00
2018-04-18T04:17:51.569Z,8.00
2018-04-18T04:18:57.077Z,4.00
2018-04-18T04:20:02.584Z,8.00
2018-04-18T04:21:08.097Z,8.00
2018-04-18T04:22:13.609Z,12.00
2018-04-18T04:23:19.120Z,12.00
2018-04-18T04:24:24.635Z,12.00
2018-04-18T04:25:30.147Z,16.00
2018-04-18T04:26:35.660Z,16.00
2018-04-18T04:27:41.167Z,20.00
2018-04-18T04:28:46.682Z,24.00
2018-04-18T04:29:52.276Z,28.00
2018-04-18T04:30:57.707Z,28.00
2018-04-18T04:32:03.224Z,32.00
2018-04-18T04:33:08.731Z,36.00
2018-04-18T04:34:14.242Z,36.00
2018-04-18T04:35:19.764Z,40.00
2018-04-18T04:36:25.298Z,40.00
2018-04-18T04:37:30.788Z,48.00
2018-04-18T04:38:36.296Z,48.00
2018-04-18T04:39:41.803Z,56.00
2018-04-18T04:40:47.318Z,56.00
2018-04-18T04:41:52.827Z,60.00
2018-04-18T04:42:58.337Z,64.00
2018-04-18T04:44:03.854Z,68.00
2018-04-18T04:45:09.369Z,72.00
2018-04-18T04:46:14.875Z,76.00
2018-04-18T04:47:20.388Z,80.00
2018-04-18T04:48:25.905Z,88.00
2018-04-18T04:49:31.411Z,92.00
2018-04-18T04:50:36.923Z,96.00
2018-04-18T04:51:42.439Z,96.00
2018-04-18T04:52:47.944Z,104.00
2018-04-18T04:53:53.461Z,108.00
2018-04-18T04:54:58.971Z,112.00
2018-04-18T04:56:04.493Z,116.00
2018-04-18T04:57:10.005Z,120.00
2018-04-18T04:58:15.508Z,128.00
2018-04-18T04:59:21.024Z,132.00
2018-04-18T05:00:26.532Z,136.00
2018-04-18T05:01:32.048Z,140.00
2018-04-18T05:02:37.563Z,148.00
2018-04-18T05:03:43.071Z,148.00
2018-04-18T05:04:48.588Z,156.00
2018-04-18T05:05:54.095Z,160.00
2018-04-18T05:06:59.601Z,164.00
2018-04-18T05:08:05.119Z,168.00
2018-04-18T05:09:10.641Z,172.00
2018-04-18T05:10:16.291Z,180.00
2018-04-18T05:11:21.652Z,180.00
2018-04-18T05:12:27.211Z,188.00
2018-04-18T05:13:32.695Z,188.00
2018-04-18T05:14:38.188Z,196.00
2018-04-18T05:15:43.761Z,200.00
2018-04-18T05:16:49.218Z,204.00
2018-04-18T05:17:54.741Z,208.00
2018-04-18T05:19:00.233Z,212.00
2018-04-18T05:20:05.758Z,216.00
2018-04-18T05:21:11.308Z,220.00
2018-04-18T05:22:16.771Z,224.00
2018-04-18T05:23:22.293Z,228.00
2018-04-18T05:24:27.794Z,232.00
2018-04-18T05:25:33.307Z,236.00
2018-04-18T05:26:38.823Z,236.00
2018-04-18T05:27:44.337Z,244.00
2018-04-18T05:28:49.844Z,248.00
2018-04-18T05:29:55.354Z,248.00
2018-04-18T05:31:00.872Z,252.00
2018-04-18T05:32:06.379Z,252.00
2018-04-18T05:33:11.889Z,256.00
2018-04-18T05:34:17.405Z,260.00
2018-04-18T05:35:22.932Z,264.00
2018-04-18T05:36:28.428Z,264.00
2018-04-18T05:37:33.938Z,268.00
2018-04-18T05:38:39.449Z,272.00
2018-04-18T05:39:44.973Z,276.00
2018-04-18T05:40:50.483Z,276.00
2018-04-18T05:41:55.985Z,276.00
2018-04-18T05:43:01.505Z,280.00
2018-04-18T05:44:07.011Z,280.00
2018-04-18T05:45:12.558Z,288.00
2018-04-18T05:46:18.045Z,288.00
2018-04-18T05:47:23.550Z,292.00
2018-04-18T05:48:29.082Z,296.00
2018-04-18T05:49:34.568Z,296.00
2018-04-18T05:50:40.088Z,300.00
2018-04-18T05:51:45.600Z,304.00
2018-04-18T05:52:51.126Z,304.00
2018-04-18T05:53:56.646Z,304.00
2018-04-18T05:55:02.139Z,300.00
2018-04-18T05:56:07.655Z,308.00
2018-04-18T05:57:13.157Z,308.00
2018-04-18T05:58:18.670Z,312.00
2018-04-18T05:59:24.194Z,312.00
2018-04-18T06:00:29.692Z,312.00
2018-04-18T06:01:35.209Z,312.00
2018-04-18T06:02:40.717Z,312.00
2018-04-18T06:03:46.235Z,316.00
2018-04-18T06:04:51.834Z,320.00
2018-04-18T06:05:57.255Z,324.00
2018-04-18T06:07:02.769Z,324.00
2018-04-18T06:08:08.288Z,324.00
2018-04-18T06:09:13.797Z,328.00
2018-04-18T06:10:19.309Z,332.00
2018-04-18T06:11:24.819Z,336.00
2018-04-18T06:12:30.337Z,340.00
2018-04-18T06:13:35.852Z,340.00
2018-04-18T06:14:41.360Z,344.00
2018-04-18T06:15:46.868Z,344.00
2018-04-18T06:16:52.382Z,348.00
2018-04-18T06:17:57.895Z,348.00
2018-04-18T06:19:03.415Z,344.00
2018-04-18T06:20:08.924Z,352.00
2018-04-18T06:21:14.434Z,352.00
2018-04-18T06:22:19.951Z,352.00
2018-04-18T06:23:25.469Z,352.00
2018-04-18T06:24:30.980Z,360.00
2018-04-18T06:25:36.486Z,360.00
2018-04-18T06:26:41.998Z,364.00
2018-04-18T06:27:47.508Z,364.00
2018-04-18T06:28:53.028Z,364.00
2018-04-18T06:29:58.539Z,364.00
2018-04-18T06:31:04.050Z,368.00
2018-04-18T06:32:09.560Z,372.00
2018-04-18T06:33:15.081Z,372.00
2018-04-18T06:34:20.589Z,376.00
2018-04-18T06:35:26.196Z,372.00
2018-04-18T06:36:31.619Z,376.00
2018-04-18T06:37:37.136Z,376.00
2018-04-18T06:38:42.640Z,380.00
2018-04-18T06:39:48.152Z,380.00
2018-04-18T06:40:53.672Z,380.00
2018-04-18T06:41:59.180Z,384.00
2018-04-18T06:43:04.700Z,384.00
2018-04-18T06:44:10.215Z,384.00
2018-04-18T06:45:15.718Z,384.00
2018-04-18T06:46:21.234Z,388.00
2018-04-18T06:47:26.749Z,388.00
2018-04-18T06:48:32.259Z,388.00
2018-04-18T06:49:37.775Z,392.00
2018-04-18T06:50:43.290Z,392.00
2018-04-18T06:51:48.802Z,396.00
2018-04-18T06:52:54.315Z,396.00
2018-04-18T06:53:59.827Z,396.00
2018-04-18T06:55:05.338Z,400.00
2018-04-18T06:56:10.870Z,400.00
2018-04-18T06:57:16.369Z,400.00
2018-04-18T06:58:21.907Z,400.00
2018-04-18T06:59:27.401Z,400.00
2018-04-18T07:00:32.926Z,400.00
2018-04-18T07:01:38.430Z,404.00
2018-04-18T07:02:43.940Z,404.00
2018-04-18T07:03:49.530Z,404.00
2018-04-18T07:04:54.966Z,404.00
2018-04-18T07:06:00.478Z,408.00
2018-04-18T07:07:06.040Z,412.00
2018-04-18T07:08:11.534Z,412.00
2018-04-18T07:09:17.026Z,412.00
2018-04-18T07:10:22.549Z,416.00
2018-04-18T07:11:28.050Z,420.00
2018-04-18T07:12:33.576Z,420.00
2018-04-18T07:13:39.080Z,424.00
2018-04-18T07:14:44.597Z,420.00
2018-04-18T07:15:50.106Z,424.00
2018-04-18T07:16:55.633Z,420.00
2018-04-18T07:18:01.141Z,424.00
2018-04-18T07:19:06.732Z,424.00
2018-04-18T07:20:12.170Z,428.00
2018-04-18T07:21:17.678Z,428.00
2018-04-18T07:22:23.197Z,432.00
2018-04-18T07:23:28.710Z,440.00
2018-04-18T07:24:34.232Z,440.00
2018-04-18T07:25:39.743Z,444.00
2018-04-18T07:26:45.258Z,452.00
2018-04-18T07:27:50.766Z,460.00
2018-04-18T07:28:56.283Z,460.00
2018-04-18T07:30:01.808Z,468.00
2018-04-18T07:31:07.311Z,472.00
2018-04-18T07:32:12.883Z,476.00
2018-04-18T07:33:18.341Z,484.00
2018-04-18T07:34:23.959Z,488.00
2018-04-18T07:35:29.370Z,492.00
2018-04-18T07:36:34.889Z,496.00
2018-04-18T07:37:40.449Z,500.00
2018-04-18T07:38:45.920Z,504.00
2018-04-18T07:39:51.435Z,504.00
2018-04-18T07:40:56.961Z,512.00
2018-04-18T07:42:02.468Z,512.00
2018-04-18T07:43:07.978Z,516.00
2018-04-18T07:44:13.492Z,512.00
2018-04-18T07:45:19.005Z,516.00
2018-04-18T07:46:24.524Z,524.00
2018-04-18T07:47:30.051Z,528.00
2018-04-18T07:48:35.564Z,532.00
2018-04-18T07:49:41.069Z,540.00
2018-04-18T07:50:46.590Z,540.00
2018-04-18T07:51:52.108Z,552.00
2018-04-18T07:52:57.650Z,556.00
2018-04-18T07:54:03.139Z,560.00
2018-04-18T07:55:08.653Z,564.00
2018-04-18T07:56:14.161Z,568.00
2018-04-18T07:57:19.680Z,576.00
2018-04-18T07:58:25.200Z,580.00
2018-04-18T07:59:30.716Z,584.00
2018-04-18T08:00:36.226Z,588.00
2018-04-18T08:01:41.752Z,592.00
2018-04-18T08:02:47.270Z,596.00
2018-04-18T08:03:52.777Z,600.00
2018-04-18T08:04:58.300Z,604.00
2018-04-18T08:06:03.807Z,608.00
2018-04-18T08:07:09.488Z,612.00
2018-04-18T08:08:14.841Z,616.00
2018-04-18T08:09:20.362Z,616.00
2018-04-18T08:10:25.880Z,620.00
2018-04-18T08:11:31.388Z,624.00
2018-04-18T08:12:36.908Z,624.00
2018-04-18T08:13:42.439Z,628.00
2018-04-18T08:14:47.950Z,632.00
2018-04-18T08:15:53.469Z,632.00
2018-04-18T08:16:58.973Z,644.00
2018-04-18T08:18:04.490Z,640.00
2018-04-18T08:19:10.014Z,640.00
2018-04-18T08:20:15.525Z,640.00
2018-04-18T08:21:21.044Z,644.00
2018-04-18T08:22:26.556Z,644.00
2018-04-18T08:23:32.079Z,648.00
2018-04-18T08:24:37.591Z,648.00
2018-04-18T08:25:43.151Z,644.00
2018-04-18T08:26:48.625Z,644.00
2018-04-18T08:27:54.144Z,644.00
2018-04-18T08:28:59.661Z,640.00
2018-04-18T08:30:05.175Z,640.00
2018-04-18T08:31:10.697Z,648.00
2018-04-18T08:32:16.211Z,648.00
2018-04-18T08:33:21.731Z,652.00
2018-04-18T08:34:27.253Z,652.00
2018-04-18T08:35:32.773Z,656.00
2018-04-18T08:36:38.281Z,656.00
2018-04-18T08:37:43.799Z,648.00
2018-04-18T08:38:49.320Z,648.00
2018-04-18T08:39:54.836Z,652.00
2018-04-18T08:41:00.347Z,652.00
2018-04-18T08:42:05.867Z,656.00
2018-04-18T08:43:11.395Z,648.00
2018-04-18T08:44:16.905Z,648.00
2018-04-18T08:45:22.430Z,652.00
2018-04-18T08:46:27.942Z,656.00
2018-04-18T08:47:33.453Z,652.00
2018-04-18T08:48:38.974Z,652.00
2018-04-18T08:49:44.490Z,652.00
2018-04-18T08:50:50.018Z,660.00
2018-04-18T08:51:55.527Z,656.00
2018-04-18T08:53:01.046Z,656.00
2018-04-18T08:54:06.559Z,664.00
2018-04-18T08:55:12.076Z,668.00
2018-04-18T08:56:17.602Z,668.00
2018-04-18T08:57:23.113Z,684.00
2018-04-18T08:58:28.633Z,680.00
2018-04-18T08:59:34.150Z,684.00
2018-04-18T09:00:39.668Z,688.00
2018-04-18T09:01:45.187Z,700.00
2018-04-18T09:02:50.713Z,700.00
2018-04-18T09:03:56.221Z,704.00
2018-04-18T09:05:01.746Z,708.00
2018-04-18T09:06:07.257Z,688.00
2018-04-18T09:07:12.790Z,720.00
2018-04-18T09:08:18.296Z,724.00
2018-04-18T09:09:23.809Z,720.00
2018-04-18T09:10:29.333Z,724.00
2018-04-18T09:11:34.847Z,728.00
2018-04-18T09:12:40.368Z,728.00
2018-04-18T09:13:45.882Z,736.00
2018-04-18T09:14:51.411Z,740.00
2018-04-18T09:15:56.924Z,748.00
2018-04-18T09:17:02.454Z,752.00
2018-04-18T09:18:07.968Z,752.00
2018-04-18T09:19:13.480Z,752.00
2018-04-18T09:20:19.001Z,756.00
2018-04-18T09:21:24.523Z,756.00
2018-04-18T09:22:30.036Z,764.00
2018-04-18T09:23:35.551Z,760.00
2018-04-18T09:24:41.069Z,764.00
2018-04-18T09:25:46.589Z,764.00
2018-04-18T09:26:52.108Z,768.00
2018-04-18T09:27:57.622Z,772.00
2018-04-18T09:29:03.142Z,776.00
2018-04-18T09:30:08.668Z,788.00
2018-04-18T09:31:14.178Z,796.00
2018-04-18T09:32:19.701Z,804.00
2018-04-18T09:33:25.218Z,808.00
2018-04-18T09:34:30.738Z,816.00
2018-04-18T09:35:36.258Z,816.00
2018-04-18T09:36:41.785Z,808.00
2018-04-18T09:37:47.398Z,812.00
2018-04-18T09:38:52.809Z,824.00
2018-04-18T09:39:58.329Z,832.00
2018-04-18T09:41:03.847Z,836.00
2018-04-18T09:42:09.369Z,840.00
2018-04-18T09:43:14.890Z,844.00
2018-04-18T09:44:20.409Z,860.00
2018-04-18T09:45:25.931Z,828.00
2018-04-18T09:46:31.445Z,832.00
2018-04-18T09:47:36.967Z,796.00
2018-04-18T09:48:42.490Z,820.00
2018-04-18T09:49:48.004Z,820.00
2018-04-18T09:50:53.537Z,856.00
2018-04-18T09:51:59.040Z,860.00
2018-04-18T09:53:04.564Z,856.00
2018-04-18T09:54:10.079Z,864.00
2018-04-18T09:55:15.598Z,868.00
2018-04-18T09:56:21.123Z,872.00
2018-04-18T09:57:26.636Z,872.00
2018-04-18T09:58:32.227Z,872.00
2018-04-18T09:59:37.680Z,872.00
2018-04-18T10:00:43.192Z,884.00
2018-04-18T10:01:48.716Z,892.00
2018-04-18T10:02:54.235Z,900.00
2018-04-18T10:03:59.753Z,892.00
2018-04-18T10:05:05.278Z,896.00
2018-04-18T10:06:10.796Z,904.00
2018-04-18T10:07:16.322Z,916.00
2018-04-18T10:08:21.827Z,920.00
2018-04-18T10:09:27.345Z,928.00
2018-04-18T10:10:32.874Z,928.00
2018-04-18T10:11:38.389Z,924.00
2018-04-18T10:12:43.908Z,916.00
2018-04-18T10:13:49.431Z,936.00
2018-04-18T10:14:54.946Z,952.00
2018-04-18T10:16:00.483Z,956.00
2018-04-18T10:17:05.991Z,964.00
2018-04-18T10:18:11.509Z,972.00
2018-04-18T10:19:17.039Z,976.00
2018-04-18T10:20:22.548Z,948.00
2018-04-18T10:21:28.070Z,996.00
2018-04-18T10:22:33.606Z,1000.00
2018-04-18T10:23:39.103Z,992.00
2018-04-18T10:24:44.624Z,980.00
2018-04-18T10:25:50.144Z,984.00
2018-04-18T10:26:55.672Z,1020.00
2018-04-18T10:28:01.184Z,1020.00
2018-04-18T10:29:06.703Z,1000.00
2018-04-18T10:30:12.222Z,1012.00
2018-04-18T10:31:17.750Z,1024.00
2018-04-18T10:32:23.291Z,1028.00
2018-04-18T10:33:28.780Z,1024.00
2018-04-18T10:34:34.298Z,1032.00
2018-04-18T10:35:39.953Z,1036.00
2018-04-18T10:36:45.338Z,1048.00
2018-04-18T10:37:50.901Z,1064.00
2018-04-18T10:38:56.384Z,1080.00
2018-04-18T10:40:01.913Z,1092.00
2018-04-18T10:41:07.468Z,1104.00
2018-04-18T10:42:12.939Z,1112.00
2018-04-18T10:43:18.493Z,1120.00
2018-04-18T10:44:23.989Z,1128.00
2018-04-18T10:45:29.508Z,1132.00
2018-04-18T10:46:35.021Z,1132.00
2018-04-18T10:47:40.547Z,1128.00
2018-04-18T10:48:46.060Z,1140.00
2018-04-18T10:49:51.591Z,1148.00
2018-04-18T10:50:57.101Z,1160.00
2018-04-18T10:52:02.626Z,1176.00
2018-04-18T10:53:08.149Z,1184.00
2018-04-18T10:54:13.665Z,1180.00
2018-04-18T10:55:19.183Z,1188.00
2018-04-18T10:56:24.722Z,1180.00
2018-04-18T10:57:30.225Z,1184.00
2018-04-18T10:58:35.822Z,1204.00
2018-04-18T10:59:41.264Z,1216.00
2018-04-18T11:00:46.787Z,1208.00
2018-04-18T11:01:52.315Z,1204.00
2018-04-18T11:02:57.826Z,1208.00
2018-04-18T11:04:03.351Z,1212.00
2018-04-18T11:05:08.880Z,1204.00
2018-04-18T11:06:14.388Z,1184.00
2018-04-18T11:07:19.921Z,1184.00
2018-04-18T11:08:25.445Z,1184.00
2018-04-18T11:09:30.970Z,1176.00
2018-04-18T11:10:36.475Z,1148.00
2018-04-18T11:11:41.998Z,1164.00
2018-04-18T11:12:47.519Z,1196.00
2018-04-18T11:13:53.035Z,1204.00
2018-04-18T11:14:58.552Z,1228.00
2018-04-18T11:16:04.084Z,1244.00
2018-04-18T11:17:09.595Z,1252.00
2018-04-18T11:18:15.127Z,1268.00
2018-04-18T11:19:20.637Z,1284.00
2018-04-18T11:20:26.155Z,1316.00
2018-04-18T11:21:31.676Z,1336.00
2018-04-18T11:22:37.197Z,1332.00
2018-04-18T11:23:42.718Z,1340.00
2018-04-18T11:24:48.249Z,1340.00
2018-04-18T11:25:53.770Z,1348.00
2018-04-18T11:26:59.304Z,1364.00
2018-04-18T11:28:04.805Z,1376.00
2018-04-18T11:29:10.328Z,1392.00
2018-04-18T11:30:15.848Z,1388.00
2018-04-18T11:31:21.367Z,1416.00
2018-04-18T11:32:26.890Z,1412.00
2018-04-18T11:33:32.408Z,1440.00
2018-04-18T11:34:37.937Z,1404.00
2018-04-18T11:35:43.452Z,1444.00
2018-04-18T11:36:48.976Z,1448.00
2018-04-18T11:37:54.497Z,1460.00
2018-04-18T11:39:00.024Z,1460.00
2018-04-18T11:40:05.538Z,1464.00
2018-04-18T11:41:11.057Z,1460.00
2018-04-18T11:42:16.578Z,1464.00
2018-04-18T11:43:22.098Z,1472.00
2018-04-18T11:44:27.620Z,1480.00
2018-04-18T11:45:33.191Z,1508.00
2018-04-18T11:46:38.665Z,1520.00
2018-04-18T11:47:44.182Z,1528.00
2018-04-18T11:48:49.726Z,1536.00
2018-04-18T11:49:55.225Z,1572.00
2018-04-18T11:51:00.748Z,1568.00
2018-04-18T11:52:06.268Z,1596.00
2018-04-18T11:53:11.790Z,1616.00
2018-04-18T11:54:17.310Z,1608.00
2018-04-18T11:55:22.847Z,1612.00
2018-04-18T11:56:28.362Z,1628.00
2018-04-18T11:57:33.897Z,1624.00
2018-04-18T11:58:39.397Z,1632.00
2018-04-18T11:59:44.919Z,1624.00
2018-04-18T12:00:50.437Z,1608.00
2018-04-18T12:01:55.964Z,1616.00
2018-04-18T12:03:01.485Z,1584.00
2018-04-18T12:04:07.007Z,1580.00
2018-04-18T12:05:12.532Z,1596.00
2018-04-18T12:06:18.054Z,1608.00
2018-04-18T12:07:23.567Z,1620.00
2018-04-18T12:08:29.089Z,1624.00
2018-04-18T12:09:34.619Z,1628.00
2018-04-18T12:10:40.144Z,1616.00
2018-04-18T12:11:45.656Z,1624.00
2018-04-18T12:12:51.178Z,1636.00
2018-04-18T12:13:56.698Z,1636.00
2018-04-18T12:15:02.225Z,1644.00
2018-04-18T12:16:07.749Z,1676.00
2018-04-18T12:17:13.280Z,1680.00
2018-04-18T12:18:18.787Z,1696.00
2018-04-18T12:19:24.313Z,1716.00
2018-04-18T12:20:29.837Z,1716.00
2018-04-18T12:21:35.354Z,1700.00
2018-04-18T12:22:40.881Z,1728.00
2018-04-18T12:23:46.394Z,1724.00
2018-04-18T12:24:51.924Z,1696.00
2018-04-18T12:25:57.443Z,1372.00
2018-04-18T12:27:02.962Z,1664.00
2018-04-18T12:28:08.486Z,1696.00
2018-04-18T12:29:14.002Z,1708.00
2018-04-18T12:30:19.528Z,1732.00
2018-04-18T12:31:25.060Z,1748.00
2018-04-18T12:32:30.578Z,1720.00
2018-04-18T12:33:36.113Z,1724.00
2018-04-18T12:34:41.629Z,1736.00
2018-04-18T12:35:47.139Z,1764.00
2018-04-18T12:36:52.661Z,1792.00
2018-04-18T12:37:58.238Z,1804.00
2018-04-18T12:39:03.702Z,1816.00
2018-04-18T12:40:09.228Z,1828.00
2018-04-18T12:41:14.787Z,1852.00
2018-04-18T12:42:20.278Z,1860.00
2018-04-18T12:43:25.793Z,1860.00
2018-04-18T12:44:31.314Z,1856.00
2018-04-18T12:45:36.841Z,1868.00
2018-04-18T12:46:42.360Z,1868.00
2018-04-18T12:47:47.880Z,1864.00
2018-04-18T12:48:53.406Z,1864.00
2018-04-18T12:49:58.930Z,1868.00
2018-04-18T12:51:04.456Z,1868.00
2018-04-18T12:52:09.968Z,1860.00
2018-04-18T12:53:15.505Z,1852.00
2018-04-18T12:54:21.026Z,1856.00
2018-04-18T12:55:26.544Z,1864.00
2018-04-18T12:56:32.057Z,1876.00
2018-04-18T12:57:37.641Z,1724.00
2018-04-18T12:58:43.100Z,1868.00
2018-04-18T12:59:48.631Z,1836.00
2018-04-18T13:00:54.149Z,1840.00
2018-04-18T13:01:59.668Z,1832.00
2018-04-18T13:03:05.207Z,1828.00
2018-04-18T13:04:10.724Z,1840.00
2018-04-18T13:05:16.244Z,1828.00
2018-04-18T13:06:21.762Z,1860.00
2018-04-18T13:07:27.290Z,1880.00
2018-04-18T13:08:32.807Z,1884.00
2018-04-18T13:09:38.324Z,1896.00
2018-04-18T13:10:43.875Z,1876.00
2018-04-18T13:11:49.379Z,1836.00
2018-04-18T13:12:54.898Z,1788.00
2018-04-18T13:14:00.413Z,1764.00
2018-04-18T13:15:05.936Z,1712.00
2018-04-18T13:16:11.464Z,1728.00
2018-04-18T13:17:16.990Z,1732.00
2018-04-18T13:18:22.565Z,1736.00
2018-04-18T13:19:28.027Z,1736.00
2018-04-18T13:20:33.555Z,1740.00
2018-04-18T13:21:39.075Z,1736.00
2018-04-18T13:22:44.604Z,1724.00
2018-04-18T13:23:50.117Z,1708.00
2018-04-18T13:24:55.643Z,1708.00
2018-04-18T13:26:01.233Z,1704.00
2018-04-18T13:27:06.691Z,1676.00
2018-04-18T13:28:12.215Z,1688.00
2018-04-18T13:29:17.745Z,1688.00
2018-04-18T13:30:23.253Z,1688.00
2018-04-18T13:31:28.778Z,1684.00
2018-04-18T13:32:34.300Z,1688.00
2018-04-18T13:33:39.828Z,1692.00
2018-04-18T13:34:45.343Z,1712.00
2018-04-18T13:35:50.867Z,1716.00
2018-04-18T13:36:56.392Z,1728.00
2018-04-18T13:38:01.906Z,1712.00
2018-04-18T13:39:07.436Z,1716.00
2018-04-18T13:40:12.951Z,1692.00
2018-04-18T13:41:18.475Z,1684.00
2018-04-18T13:42:23.998Z,1672.00
2018-04-18T13:43:29.527Z,1648.00
2018-04-18T13:44:35.048Z,1648.00
2018-04-18T13:45:40.575Z,1624.00